Latest Weather Observations for Sheffield

IDT60801

Issued at 6:02 am EST Tuesday 26 July 2016 (issued every 30 minutes, with the page automatically refreshed every 10 minutes)

About weather observations | Map of weather stations | Latest weather observations for TAS | Other Formats
Station Details ID: 091291 Name: SHEFFIELD SCHOOL FARM Lat: -41.39 Lon: 146.32 Height: 294.2 m
Data from the previous 72 hours. | See also: Recent months at Sheffield
Date/Time
EST
Temp
°C
App
Temp
°C
Dew
Point
°C
Rel
Hum
%
Delta-T
°C
Wind Press
QNH
hPa
Press
MSL
hPa
Rain since
9am
mm
Dir  Spd
km/h
Gust
km/h
Spd
kts
Gust
kts
26/06:00am 2.5 -3.6 0.6 87 0.7 W 22 35 12 19 998.5 999.0 18.6
26/05:30am 2.7 -3.9 -0.1 82 1.1 WNW 24 33 13 18 997.3 997.8 18.0
26/05:00am 1.9 -4.2 0.1 88 0.7 WNW 22 28 12 15 997.0 997.5 18.0
26/04:38am 2.5 -4.7 0.6 87 0.7 W 28 52 15 28 997.0 997.5 17.6
26/04:30am 2.7 -4.1 0.8 87 0.7 WNW 26 35 14 19 996.8 997.3 17.2
26/04:00am 2.0 -3.1 0.7 91 0.5 WNW 17 24 9 13 996.4 996.9 17.0
26/03:30am 2.5 -3.1 0.9 89 0.6 W 20 30 11 16 996.3 996.8 16.2
26/03:00am 2.9 -4.3 0.8 86 0.8 W 28 52 15 28 995.9 996.4 15.2
26/02:54am 3.6 -2.8 0.8 82 1.1 W 24 52 13 28 996.0 996.5 14.8
26/02:30am 3.2 -4.7 0.9 85 0.9 WNW 32 46 17 25 995.0 995.4 14.8
26/02:00am 3.6 -2.5 0.5 80 1.2 WNW 22 43 12 23 995.2 995.6 14.6
26/01:30am 3.6 -1.6 0.3 79 1.3 WNW 17 28 9 15 994.8 995.2 14.2
26/01:00am 3.6 -2.9 0.1 78 1.4 WNW 24 35 13 19 994.2 994.6 14.2
26/12:30am 3.5 -4.5 0.4 80 1.2 WNW 32 41 17 22 993.7 994.2 14.2
26/12:06am 4.0 -3.2 0.9 80 1.2 WNW 28 57 15 31 994.0 994.5 14.0
26/12:00am 3.8 -2.6 1.0 82 1.1 WNW 24 33 13 18 993.9 994.4 14.0
 
Date/Time
EST
Temp
°C
App
Temp
°C
Dew
Point
°C
Rel
Hum
%
Delta-T
°C
Wind Press
QNH
hPa
Press
MSL
hPa
Rain since
9am
mm
Dir  Spd
km/h
Gust
km/h
Spd
kts
Gust
kts
25/11:30pm 3.5 -3.2 1.2 85 0.9 WNW 26 35 14 19 993.3 993.8 14.0
25/11:07pm 4.2 -2.9 1.2 81 1.2 WNW 28 46 15 25 993.5 994.0 13.4
25/11:00pm 3.7 -2.7 1.1 83 1.0 WNW 24 32 13 17 993.3 993.8 13.4
25/10:34pm 3.6 -4.2 1.6 87 0.8 WNW 32 52 17 28 993.0 993.5 13.4
25/10:30pm 3.7 -5.1 1.6 86 0.8 WNW 37 54 20 29 992.9 993.4 13.2
25/10:18pm 3.9 -3.1 2.1 88 0.7 WNW 28 50 15 27 993.1 993.6 12.8
25/10:00pm 3.8 -3.2 1.8 87 0.8 WNW 28 48 15 26 992.8 993.3 12.6
25/09:46pm 4.1 -5.4 1.5 83 1.0 W 41 65 22 35 992.4 992.8 12.0
25/09:42pm 4.4 -4.0 1.4 81 1.2 W 35 61 19 33 992.5 993.0 11.8
25/09:38pm 5.2 -1.8 1.9 79 1.3 WNW 28 56 15 30 992.6 993.1 11.6
25/09:30pm 5.1 -2.0 1.6 78 1.4 WNW 28 39 15 21 992.0 992.4 11.6
25/09:00pm 5.0 -2.9 1.3 77 1.5 WNW 32 48 17 26 991.6 992.0 11.6
25/08:30pm 5.8 -3.0 1.5 74 1.7 W 37 61 20 33 990.6 991.0 11.6
25/08:23pm 5.8 -1.8 2.8 81 1.3 WNW 32 52 17 28 990.9 991.3 11.6
25/08:00pm 6.1 -0.6 3.6 84 1.1 WNW 28 41 15 22 990.1 990.6 11.4
25/07:30pm 6.6 -1.3 4.6 87 0.9 NW 35 54 19 29 990.3 990.8 11.4
25/07:24pm 6.6 -0.2 5.1 90 0.7 NW 30 48 16 26 990.0 990.5 11.4
25/07:00pm 6.4 -0.4 5.2 92 0.5 NW 30 46 16 25 990.3 990.8 11.2
25/06:30pm 6.4 -2.9 5.2 92 0.5 NW 43 70 23 38 991.4 991.8 9.2
25/06:00pm 6.5 -2.1 4.5 87 0.9 NW 39 61 21 33 992.1 992.5 5.2
25/05:45pm 7.4 0.9 4.9 84 1.1 NNW 28 54 15 29 992.1 992.5 3.8
25/05:30pm 7.2 1.4 6.1 93 0.5 NNW 26 41 14 22 992.6 993.1 3.6
25/05:07pm 6.9 -0.1 6.0 94 0.4 NNW 32 52 17 28 993.3 993.8 3.4
25/05:00pm 6.6 1.4 5.6 93 0.5 NNW 22 37 12 20 993.5 994.0 3.2
25/04:30pm 6.6 0.1 4.9 89 0.8 NNW 28 41 15 22 994.6 995.0 2.4
25/04:18pm 7.5 2.4 4.3 80 1.4 NNW 20 39 11 21 994.8 995.2 1.0
25/04:00pm 8.2 4.5 4.4 77 1.7 NNW 13 22 7 12 995.1 995.5 1.0
25/03:30pm 8.2 2.7 4.0 75 1.9 NW 22 30 12 16 995.8 996.3 1.0
25/03:00pm 8.4 3.4 4.4 76 1.8 NW 20 32 11 17 996.4 996.9 1.0
25/02:30pm 8.5 2.6 4.1 74 2.0 NW 24 35 13 19 996.7 997.2 1.0
25/02:00pm 9.7 5.0 5.9 77 1.8 WNW 20 28 11 15 996.8 997.3 1.0
25/01:30pm 9.3 4.6 5.9 79 1.6 NW 20 28 11 15 997.1 997.6 1.0
25/01:00pm 8.4 4.3 6.4 87 0.9 NW 17 24 9 13 997.7 998.1 1.0
25/12:30pm 9.6 6.3 6.3 80 1.6 WNW 13 19 7 10 998.3 998.8 0.0
25/12:00pm 8.3 4.4 5.4 82 1.3 NW 15 20 8 11 998.9 999.4 0.0
25/11:30am 8.1 5.1 5.9 86 1.0 NW 11 15 6 8 999.2 999.7 0.0
25/11:00am 8.3 5.3 5.8 84 1.2 NNW 11 15 6 8 999.7 1000.2 0.0
25/10:30am 7.1 4.0 5.4 89 0.8 NNW 11 15 6 8 999.7 1000.2 0.0
25/10:00am 6.3 4.0 5.7 96 0.3 NNW 7 9 4 5 999.7 1000.2 0.0
25/09:30am 5.4 4.3 5.3 99 0.0 CALM 0 2 0 1 999.6 1000.1 0.0
25/09:00am 4.3 2.3 4.2 99 0.0 WSW 4 4 2 2 999.5 1000.0 5.0
25/08:30am 3.6 1.4 3.3 98 0.1 S 4 4 2 2 999.4 999.9 5.0
25/08:00am 3.1 1.2 2.8 98 0.1 SSE 2 4 1 2 999.4 999.9 5.0
25/07:30am 3.2 0.9 2.9 98 0.1 SE 4 6 2 3 999.5 1000.0 5.0
25/07:00am 3.4 0.8 3.1 98 0.1 S 6 6 3 3 999.5 1000.0 5.0
25/06:30am 3.9 2.1 3.6 98 0.1 SSE 2 4 1 2 999.4 999.9 5.0
25/06:00am 4.2 2.9 3.9 98 0.1 CALM 0 2 0 1 999.4 999.9 5.0
25/05:30am 4.1 2.4 3.8 98 0.1 SE 2 4 1 2 999.6 1000.1 5.0
25/05:00am 4.1 2.0 3.8 98 0.1 ESE 4 4 2 2 999.5 1000.0 5.0
25/04:30am 4.2 1.7 3.9 98 0.1 ESE 6 6 3 3 999.5 1000.0 5.0
25/04:00am 4.4 1.8 4.1 98 0.1 SE 7 9 4 5 999.5 1000.0 5.0
25/03:30am 4.4 1.8 4.1 98 0.1 SE 7 9 4 5 999.6 1000.1 4.6
25/03:00am 4.4 1.4 4.1 98 0.1 SE 9 13 5 7 999.9 1000.4 4.6
25/02:30am 4.4 1.4 4.1 98 0.1 ESE 9 11 5 6 1000.1 1000.6 4.6
25/02:00am 4.4 1.8 4.1 98 0.1 SE 7 7 4 4 1000.3 1000.8 4.2
25/01:30am 4.4 1.4 4.1 98 0.1 SE 9 9 5 5 1000.6 1001.1 3.8
25/01:00am 4.4 2.3 4.1 98 0.1 SE 4 6 2 3 1000.8 1001.3 3.0
25/12:30am 4.4 2.0 4.1 98 0.1 S 6 7 3 4 1000.9 1001.5 2.8
25/12:00am 4.3 1.7 4.0 98 0.1 SE 7 7 4 4 1001.1 1001.7 2.8
 
Date/Time
EST
Temp
°C
App
Temp
°C
Dew
Point
°C
Rel
Hum
%
Delta-T
°C
Wind Press
QNH
hPa
Press
MSL
hPa
Rain since
9am
mm
Dir  Spd
km/h
Gust
km/h
Spd
kts
Gust
kts
24/11:30pm 4.3 1.8 4.0 98 0.1 ESE 6 7 3 4 1001.1 1001.7 2.2
24/11:00pm 4.2 2.1 3.8 97 0.2 SE 4 4 2 2 1001.4 1001.9 2.2
24/10:30pm 4.2 1.5 3.8 97 0.2 SE 7 7 4 4 1001.5 1002.0 2.2
24/10:00pm 4.5 2.8 4.1 97 0.2 S 2 6 1 3 1002.0 1002.5 2.2
24/09:30pm 4.5 2.4 4.1 97 0.2 SE 4 6 2 3 1002.1 1002.6 1.0
24/09:00pm 4.5 2.0 3.9 96 0.3 SSE 6 7 3 4 1002.2 1002.7 0.8
24/08:30pm 4.3 2.2 3.7 96 0.3 ESE 4 6 2 3 1002.4 1002.9 0.4
24/08:00pm 4.3 2.1 3.6 95 0.3 ESE 4 4 2 2 1002.6 1003.1 0.4
24/07:30pm 4.6 3.3 3.9 95 0.3 CALM 0 4 0 2 1002.7 1003.2 0.4
24/07:00pm 4.7 3.0 4.0 95 0.3 N 2 4 1 2 1002.9 1003.4 0.2
24/06:30pm 4.6 2.5 3.9 95 0.3 N 4 6 2 3 1002.9 1003.4 0.2
24/06:00pm 4.6 2.1 3.7 94 0.4 N 6 6 3 3 1002.8 1003.3 0.2
24/05:30pm 5.1 2.5 4.2 94 0.4 N 7 7 4 4 1002.9 1003.4 0.2
24/05:00pm 5.1 2.6 3.9 92 0.5 N 6 9 3 5 1002.8 1003.3 0.2
24/04:30pm 5.4 2.3 3.7 89 0.7 N 9 11 5 6 1003.0 1003.5 0.2
24/04:00pm 5.8 2.4 4.0 88 0.8 NNW 11 15 6 8 1003.1 1003.6 0.2
24/03:30pm 5.6 1.3 3.3 85 1.0 NNW 15 19 8 10 1003.2 1003.7 0.2
24/03:00pm 6.2 1.6 3.9 85 1.0 NNW 17 22 9 12 1003.2 1003.7 0.2
24/02:30pm 6.5 3.8 3.5 81 1.3 NNW 7 9 4 5 1003.3 1003.8 0.0
24/02:00pm 7.3 2.9 2.8 73 1.9 NNW 15 19 8 10 1003.3 1003.8 0.0
24/01:30pm 7.2 4.0 2.9 74 1.8 NNW 9 13 5 7 1003.7 1004.2 0.0
24/01:00pm 7.0 3.7 2.3 72 2.0 NW 9 13 5 7 1004.1 1004.7 0.0
24/12:30pm 7.0 3.7 2.7 74 1.8 NW 9 13 5 7 1004.5 1005.1 0.0
24/12:00pm 6.0 2.7 2.5 78 1.5 NW 9 13 5 7 1005.2 1005.7 0.0
24/11:30am 5.9 2.5 2.0 76 1.6 WNW 9 15 5 8 1005.7 1006.2 0.0
24/11:00am 5.8 2.9 1.7 75 1.7 NNW 6 7 3 4 1005.9 1006.4 0.0
24/10:30am 4.9 2.7 1.2 77 1.5 NW 2 6 1 3 1005.9 1006.4 0.0
24/10:00am 3.8 1.9 0.5 79 1.3 CALM 0 0 0 0 1006.0 1006.5 0.0
24/09:30am 3.8 1.9 0.5 79 1.3 CALM 0 4 0 2 1006.0 1006.5 0.0
24/09:00am 2.2 -0.6 -0.5 82 1.0 NNW 4 6 2 3 1006.1 1006.6 3.8
24/08:30am 2.3 -0.5 -0.3 83 1.0 NW 4 4 2 2 1006.0 1006.5 3.8
24/08:00am 0.8 -2.7 -1.0 88 0.6 N 7 7 4 4 1006.0 1006.5 3.6
24/07:30am 0.9 -2.4 -0.9 88 0.6 WNW 6 7 3 4 1006.0 1006.5 3.6
24/07:00am 0.4 -3.5 -1.5 87 0.7 NNW 9 11 5 6 1005.7 1006.2 3.6
24/06:30am 0.0 -3.4 -1.9 87 0.7 WNW 6 11 3 6 1005.8 1006.3 3.6
24/06:00am 1.1 -2.4 -1.1 85 0.8 W 7 11 4 6 1005.5 1006.0 3.6
24/05:30am 0.7 -2.2 -1.1 88 0.6 WNW 4 6 2 3 1005.6 1006.1 3.6
24/05:00am 0.8 -3.1 -1.4 85 0.8 WNW 9 15 5 8 1005.6 1006.1 3.6
24/04:30am -0.1 -3.8 -2.5 84 0.8 NW 7 11 4 6 1005.6 1006.1 3.6
24/04:00am 1.2 -2.7 -1.5 82 1.0 WNW 9 13 5 7 1005.6 1006.1 3.6
24/03:30am 1.1 -2.5 -1.8 81 1.0 WNW 7 13 4 7 1005.8 1006.3 3.6
24/03:00am 0.1 -3.5 -2.3 84 0.8 W 7 11 4 6 1005.9 1006.4 3.6
24/02:30am -0.5 -4.2 -2.7 85 0.7 NW 7 9 4 5 1006.2 1006.7 3.6
24/02:00am 0.3 -3.7 -2.6 81 1.0 WNW 9 11 5 6 1006.0 1006.5 3.6
24/01:30am 0.9 -2.7 -2.2 80 1.1 W 7 9 4 5 1006.1 1006.6 3.6
24/01:00am 0.6 -3.0 -2.4 80 1.1 NW 7 11 4 6 1006.1 1006.6 3.6
24/12:30am 0.6 -3.4 -2.1 82 1.0 NNW 9 11 5 6 1006.0 1006.5 3.6
24/12:00am 1.0 -3.0 -2.2 79 1.2 NNW 9 13 5 7 1006.2 1006.7 3.6
 
Date/Time
EST
Temp
°C
App
Temp
°C
Dew
Point
°C
Rel
Hum
%
Delta-T
°C
Wind Press
QNH
hPa
Press
MSL
hPa
Rain since
9am
mm
Dir  Spd
km/h
Gust
km/h
Spd
kts
Gust
kts
23/11:30pm 2.3 -2.0 -1.8 74 1.5 WNW 11 17 6 9 1005.9 1006.4 3.6
23/11:00pm 1.2 -3.1 -1.9 80 1.1 NW 11 17 6 9 1005.5 1006.0 3.6
23/10:30pm 1.4 -2.2 -2.0 78 1.2 WNW 7 15 4 8 1005.3 1005.8 3.6
23/10:00pm 0.8 -2.8 -2.2 80 1.1 N 7 11 4 6 1004.9 1005.4 3.6
23/09:30pm 2.0 -3.2 -2.5 72 1.6 WNW 15 22 8 12 1004.3 1004.9 3.6
23/09:00pm 2.1 -3.1 -2.4 72 1.6 WNW 15 20 8 11 1003.9 1004.5 3.6
23/08:30pm 1.1 -3.6 -1.6 82 1.0 NW 13 19 7 10 1003.3 1003.8 3.6
23/08:00pm 1.2 -2.8 -2.2 78 1.2 WNW 9 13 5 7 1003.0 1003.5 3.6
23/07:30pm 1.1 -3.6 -2.0 80 1.1 NNW 13 17 7 9 1002.2 1002.7 3.6
23/07:00pm 1.3 -2.6 -1.6 81 1.0 N 9 15 5 8 1001.6 1002.1 3.6
23/06:30pm 2.0 -1.9 -1.6 77 1.3 WNW 9 13 5 7 1000.9 1001.5 3.6
23/06:00pm 2.2 -1.7 -1.4 77 1.3 W 9 15 5 8 1000.0 1000.5 3.6
23/05:30pm 2.7 -3.4 -2.2 70 1.7 WSW 20 33 11 18 998.7 999.2 3.6
23/05:00pm 2.5 -1.8 -1.8 73 1.6 W 11 19 6 10 997.9 998.3 3.6
23/04:30pm 3.3 -2.6 -0.9 74 1.6 WSW 20 46 11 25 997.3 997.8 3.6
23/04:00pm 3.5 -4.0 -1.4 70 1.8 WSW 28 46 15 25 996.0 996.5 3.6
23/03:57pm 3.9 -2.4 -1.3 69 1.9 WSW 22 46 12 25 995.9 996.4 3.6
23/03:30pm 3.2 -1.3 1.9 91 0.5 WNW 15 19 8 10 994.8 995.2 3.6
23/03:00pm 2.0 -2.3 0.8 92 0.5 NW 13 20 7 11 994.0 994.5 3.6
23/02:30pm 3.2 -1.9 0.9 85 0.9 WNW 17 28 9 15 993.5 994.0 2.6
23/02:00pm 1.9 -4.6 0.3 89 0.6 WNW 24 33 13 18 993.2 993.7 2.6
23/01:30pm 3.0 -2.5 1.7 91 0.5 NW 20 28 11 15 993.2 993.7 1.8
23/01:00pm 2.6 -4.7 0.0 83 1.0 W 28 48 15 26 993.3 993.8 1.8
23/12:46pm 2.6 -4.8 -1.0 77 1.3 WNW 28 46 15 25 993.0 993.5 1.6
23/12:30pm 3.1 -3.3 1.2 87 0.7 WNW 24 32 13 17 993.0 993.5 1.6
23/12:00pm 1.9 -6.2 -0.3 85 0.8 WSW 32 43 17 23 992.9 993.4 1.6
23/11:34am 4.1 -3.3 -0.9 70 1.9 WSW 28 48 15 26 992.2 992.6 1.6
23/11:30am 3.9 -2.8 -0.9 71 1.8 W 24 35 13 19 992.2 992.6 1.6
23/11:08am 3.3 -4.3 -1.8 69 1.9 WSW 28 52 15 28 992.3 992.7 1.6
23/11:00am 3.8 -3.3 -1.5 68 2.0 WSW 26 39 14 21 992.2 992.6 1.6
23/10:32am 3.1 -5.5 -2.2 68 1.9 W 33 52 18 28 991.6 992.0 1.6
23/10:30am 3.0 -6.0 -2.5 67 2.0 W 35 52 19 28 991.6 992.0 1.6
23/10:00am 1.9 -4.4 -1.0 81 1.1 WSW 22 37 12 20 991.3 991.7 1.6
23/09:30am 0.8 -4.8 -0.1 94 0.3 WSW 19 32 10 17 990.4 990.9 0.8
23/09:15am 0.4 -6.6 -0.3 95 0.3 WSW 26 46 14 25 990.8 991.2 0.4
23/09:13am 0.5 -6.5 -0.2 95 0.3 WSW 26 46 14 25 990.8 991.2 0.4
23/09:00am 0.5 -4.4 -0.2 95 0.3 WSW 15 26 8 14 990.3 990.8 6.0
23/08:30am 0.2 -6.8 -0.5 95 0.3 WSW 26 44 14 24 989.9 990.4 6.0
23/08:12am 1.0 -6.4 -0.8 88 0.7 WSW 28 48 15 26 989.7 990.2 6.0
23/08:00am 1.4 -5.2 -0.7 86 0.8 WSW 24 32 13 17 988.9 989.3 5.8
23/07:33am 1.9 -5.5 -1.0 81 1.1 W 28 48 15 26 989.2 989.6 5.8
23/07:30am 2.2 -4.1 -0.9 80 1.1 W 22 44 12 24 988.8 989.2 5.8
23/07:00am 1.8 -4.0 -0.4 85 0.8 W 20 28 11 15 987.7 988.1 5.8
23/06:30am 2.4 -3.8 -0.2 83 1.0 WNW 22 32 12 17 987.3 987.7 5.2
23/06:10am 3.0 -4.3 -0.3 79 1.2 W 28 52 15 28 986.8 987.3 5.2

Other Formats:

Comma delimited format used in spreadsheet applications
http://www.bom.gov.au/fwo/IDT60801/IDT60801.94955.axf

JavaScript Object Notation format (JSON) in row-major order
http://www.bom.gov.au/fwo/IDT60801/IDT60801.94955.json